sensor_id;sensor_type;location;lat;lon;timestamp;P1;durP1;ratioP1;P2;durP2;ratioP2
4210;SDS011;2119;48.828;12.396;2022-12-17T00:04:51;55.07;;;26.27;;
4210;SDS011;2119;48.828;12.396;2022-12-17T00:10:10;50.70;;;25.60;;
4210;SDS011;2119;48.828;12.396;2022-12-17T00:15:29;54.23;;;25.70;;
4210;SDS011;2119;48.828;12.396;2022-12-17T00:20:52;57.33;;;25.63;;
4210;SDS011;2119;48.828;12.396;2022-12-17T00:26:10;57.03;;;25.27;;
4210;SDS011;2119;48.828;12.396;2022-12-17T00:31:29;49.07;;;24.70;;
4210;SDS011;2119;48.828;12.396;2022-12-17T00:36:49;52.83;;;25.37;;
4210;SDS011;2119;48.828;12.396;2022-12-17T00:42:08;51.40;;;25.73;;
4210;SDS011;2119;48.828;12.396;2022-12-17T00:47:27;56.03;;;26.53;;
4210;SDS011;2119;48.828;12.396;2022-12-17T00:52:46;50.43;;;24.40;;
4210;SDS011;2119;48.828;12.396;2022-12-17T00:58:05;52.70;;;26.07;;
4210;SDS011;2119;48.828;12.396;2022-12-17T01:03:24;50.23;;;26.20;;
4210;SDS011;2119;48.828;12.396;2022-12-17T01:08:43;54.67;;;24.57;;
4210;SDS011;2119;48.828;12.396;2022-12-17T01:14:01;51.77;;;24.67;;
4210;SDS011;2119;48.828;12.396;2022-12-17T01:19:20;56.43;;;25.30;;
4210;SDS011;2119;48.828;12.396;2022-12-17T01:24:39;51.50;;;23.77;;
4210;SDS011;2119;48.828;12.396;2022-12-17T01:29:58;46.70;;;23.63;;
4210;SDS011;2119;48.828;12.396;2022-12-17T01:35:17;47.97;;;22.70;;
4210;SDS011;2119;48.828;12.396;2022-12-17T01:40:36;49.53;;;23.23;;
4210;SDS011;2119;48.828;12.396;2022-12-17T01:45:55;53.17;;;25.53;;
4210;SDS011;2119;48.828;12.396;2022-12-17T01:51:15;52.47;;;25.17;;
4210;SDS011;2119;48.828;12.396;2022-12-17T01:56:34;43.93;;;22.83;;
4210;SDS011;2119;48.828;12.396;2022-12-17T02:01:54;48.67;;;23.50;;
4210;SDS011;2119;48.828;12.396;2022-12-17T02:12:49;48.30;;;22.03;;
4210;SDS011;2119;48.828;12.396;2022-12-17T02:18:10;38.30;;;17.47;;
4210;SDS011;2119;48.828;12.396;2022-12-17T02:28:51;46.70;;;21.70;;
4210;SDS011;2119;48.828;12.396;2022-12-17T02:34:10;49.53;;;22.87;;
4210;SDS011;2119;48.828;12.396;2022-12-17T02:39:28;49.17;;;22.03;;
4210;SDS011;2119;48.828;12.396;2022-12-17T02:44:47;46.90;;;23.13;;
4210;SDS011;2119;48.828;12.396;2022-12-17T02:50:07;45.40;;;20.67;;
4210;SDS011;2119;48.828;12.396;2022-12-17T02:55:26;51.93;;;24.07;;
4210;SDS011;2119;48.828;12.396;2022-12-17T03:00:45;46.00;;;22.30;;
4210;SDS011;2119;48.828;12.396;2022-12-17T03:06:04;46.03;;;19.80;;
4210;SDS011;2119;48.828;12.396;2022-12-17T03:11:26;46.60;;;21.30;;
4210;SDS011;2119;48.828;12.396;2022-12-17T03:16:45;58.40;;;22.63;;
4210;SDS011;2119;48.828;12.396;2022-12-17T03:22:04;42.37;;;20.63;;
4210;SDS011;2119;48.828;12.396;2022-12-17T03:27:24;50.67;;;21.43;;
4210;SDS011;2119;48.828;12.396;2022-12-17T03:32:44;40.77;;;19.77;;
4210;SDS011;2119;48.828;12.396;2022-12-17T03:38:07;48.23;;;21.07;;
4210;SDS011;2119;48.828;12.396;2022-12-17T03:43:25;46.80;;;21.90;;
4210;SDS011;2119;48.828;12.396;2022-12-17T03:48:45;48.00;;;23.20;;
4210;SDS011;2119;48.828;12.396;2022-12-17T03:54:04;46.87;;;22.30;;
4210;SDS011;2119;48.828;12.396;2022-12-17T03:59:22;51.17;;;22.80;;
4210;SDS011;2119;48.828;12.396;2022-12-17T04:04:42;147.17;;;55.13;;
4210;SDS011;2119;48.828;12.396;2022-12-17T04:10:02;51.60;;;22.10;;
4210;SDS011;2119;48.828;12.396;2022-12-17T04:15:21;52.67;;;22.63;;
4210;SDS011;2119;48.828;12.396;2022-12-17T04:21:00;46.63;;;21.00;;
4210;SDS011;2119;48.828;12.396;2022-12-17T04:26:19;50.20;;;20.37;;
4210;SDS011;2119;48.828;12.396;2022-12-17T04:31:37;41.87;;;21.40;;
4210;SDS011;2119;48.828;12.396;2022-12-17T04:36:56;53.17;;;22.67;;
4210;SDS011;2119;48.828;12.396;2022-12-17T04:42:15;49.40;;;22.03;;
4210;SDS011;2119;48.828;12.396;2022-12-17T04:47:34;46.77;;;21.70;;
4210;SDS011;2119;48.828;12.396;2022-12-17T04:53:03;46.97;;;20.90;;
4210;SDS011;2119;48.828;12.396;2022-12-17T04:58:22;47.20;;;20.33;;
4210;SDS011;2119;48.828;12.396;2022-12-17T05:03:41;46.10;;;21.10;;
4210;SDS011;2119;48.828;12.396;2022-12-17T05:09:00;39.67;;;19.60;;
4210;SDS011;2119;48.828;12.396;2022-12-17T05:14:19;40.77;;;19.13;;
4210;SDS011;2119;48.828;12.396;2022-12-17T05:19:38;38.20;;;20.27;;
4210;SDS011;2119;48.828;12.396;2022-12-17T05:24:57;45.10;;;20.10;;
4210;SDS011;2119;48.828;12.396;2022-12-17T05:30:16;43.13;;;20.67;;
4210;SDS011;2119;48.828;12.396;2022-12-17T05:35:35;48.27;;;20.70;;
4210;SDS011;2119;48.828;12.396;2022-12-17T05:40:55;41.97;;;18.93;;
4210;SDS011;2119;48.828;12.396;2022-12-17T05:46:14;45.37;;;21.07;;
4210;SDS011;2119;48.828;12.396;2022-12-17T05:51:33;39.30;;;20.50;;
4210;SDS011;2119;48.828;12.396;2022-12-17T05:56:52;48.63;;;23.27;;
4210;SDS011;2119;48.828;12.396;2022-12-17T06:02:11;48.33;;;23.47;;
4210;SDS011;2119;48.828;12.396;2022-12-17T06:07:29;56.43;;;26.10;;
4210;SDS011;2119;48.828;12.396;2022-12-17T06:12:55;46.53;;;24.07;;
4210;SDS011;2119;48.828;12.396;2022-12-17T06:18:14;50.93;;;25.00;;
4210;SDS011;2119;48.828;12.396;2022-12-17T06:23:32;52.77;;;25.50;;
4210;SDS011;2119;48.828;12.396;2022-12-17T06:29:05;49.20;;;22.43;;
4210;SDS011;2119;48.828;12.396;2022-12-17T06:34:24;50.90;;;25.40;;
4210;SDS011;2119;48.828;12.396;2022-12-17T06:39:43;51.40;;;23.67;;
4210;SDS011;2119;48.828;12.396;2022-12-17T06:45:02;45.27;;;22.90;;
4210;SDS011;2119;48.828;12.396;2022-12-17T06:50:21;50.47;;;24.13;;
4210;SDS011;2119;48.828;12.396;2022-12-17T06:55:40;48.00;;;24.60;;
4210;SDS011;2119;48.828;12.396;2022-12-17T07:00:58;62.63;;;28.63;;
4210;SDS011;2119;48.828;12.396;2022-12-17T07:06:17;47.73;;;25.10;;
4210;SDS011;2119;48.828;12.396;2022-12-17T07:11:36;58.93;;;26.80;;
4210;SDS011;2119;48.828;12.396;2022-12-17T07:16:55;55.27;;;26.07;;
4210;SDS011;2119;48.828;12.396;2022-12-17T07:22:14;52.90;;;26.90;;
4210;SDS011;2119;48.828;12.396;2022-12-17T07:27:41;56.80;;;26.43;;
4210;SDS011;2119;48.828;12.396;2022-12-17T07:33:02;59.60;;;28.30;;
4210;SDS011;2119;48.828;12.396;2022-12-17T07:38:21;55.03;;;27.20;;
4210;SDS011;2119;48.828;12.396;2022-12-17T07:43:40;59.57;;;27.93;;
4210;SDS011;2119;48.828;12.396;2022-12-17T07:48:59;67.47;;;30.50;;
4210;SDS011;2119;48.828;12.396;2022-12-17T07:54:18;55.20;;;27.17;;
4210;SDS011;2119;48.828;12.396;2022-12-17T07:59:37;55.27;;;28.87;;
4210;SDS011;2119;48.828;12.396;2022-12-17T08:04:56;66.93;;;32.33;;
4210;SDS011;2119;48.828;12.396;2022-12-17T08:10:15;62.13;;;30.03;;
4210;SDS011;2119;48.828;12.396;2022-12-17T08:15:33;62.33;;;30.37;;
4210;SDS011;2119;48.828;12.396;2022-12-17T08:20:53;61.03;;;30.80;;
4210;SDS011;2119;48.828;12.396;2022-12-17T08:26:11;65.73;;;34.60;;
4210;SDS011;2119;48.828;12.396;2022-12-17T08:31:30;76.03;;;35.03;;
4210;SDS011;2119;48.828;12.396;2022-12-17T08:36:49;63.93;;;30.67;;
4210;SDS011;2119;48.828;12.396;2022-12-17T08:42:08;56.60;;;28.23;;
4210;SDS011;2119;48.828;12.396;2022-12-17T08:47:27;67.53;;;30.47;;
4210;SDS011;2119;48.828;12.396;2022-12-17T08:52:46;71.63;;;33.73;;
4210;SDS011;2119;48.828;12.396;2022-12-17T08:58:06;66.00;;;31.77;;
4210;SDS011;2119;48.828;12.396;2022-12-17T09:03:25;63.40;;;31.67;;
4210;SDS011;2119;48.828;12.396;2022-12-17T09:08:44;54.50;;;27.07;;
4210;SDS011;2119;48.828;12.396;2022-12-17T09:14:04;51.70;;;26.20;;
4210;SDS011;2119;48.828;12.396;2022-12-17T09:19:22;56.20;;;28.23;;
4210;SDS011;2119;48.828;12.396;2022-12-17T09:24:41;56.90;;;26.30;;
4210;SDS011;2119;48.828;12.396;2022-12-17T09:30:00;58.37;;;27.20;;
4210;SDS011;2119;48.828;12.396;2022-12-17T09:35:19;52.30;;;26.43;;
4210;SDS011;2119;48.828;12.396;2022-12-17T09:40:39;50.97;;;25.33;;
4210;SDS011;2119;48.828;12.396;2022-12-17T09:51:21;56.90;;;26.80;;
4210;SDS011;2119;48.828;12.396;2022-12-17T09:56:45;48.70;;;24.50;;
4210;SDS011;2119;48.828;12.396;2022-12-17T10:02:25;57.63;;;27.27;;
4210;SDS011;2119;48.828;12.396;2022-12-17T10:07:44;66.73;;;30.83;;
4210;SDS011;2119;48.828;12.396;2022-12-17T10:13:15;52.57;;;25.67;;
4210;SDS011;2119;48.828;12.396;2022-12-17T10:24:21;53.33;;;24.87;;
4210;SDS011;2119;48.828;12.396;2022-12-17T10:29:45;51.97;;;27.00;;
4210;SDS011;2119;48.828;12.396;2022-12-17T10:35:11;66.77;;;32.40;;
4210;SDS011;2119;48.828;12.396;2022-12-17T10:40:32;50.90;;;25.80;;
4210;SDS011;2119;48.828;12.396;2022-12-17T10:46:03;59.77;;;26.13;;
4210;SDS011;2119;48.828;12.396;2022-12-17T10:51:34;52.50;;;26.53;;
4210;SDS011;2119;48.828;12.396;2022-12-17T10:57:04;54.07;;;26.37;;
4210;SDS011;2119;48.828;12.396;2022-12-17T11:02:28;50.53;;;23.53;;
4210;SDS011;2119;48.828;12.396;2022-12-17T11:13:31;53.40;;;25.30;;
4210;SDS011;2119;48.828;12.396;2022-12-17T11:18:55;47.70;;;25.40;;
4210;SDS011;2119;48.828;12.396;2022-12-17T11:24:32;55.63;;;24.53;;
4210;SDS011;2119;48.828;12.396;2022-12-17T11:29:52;47.77;;;23.20;;
4210;SDS011;2119;48.828;12.396;2022-12-17T11:36:14;46.73;;;24.40;;
4210;SDS011;2119;48.828;12.396;2022-12-17T11:41:06;56.07;;;25.03;;
4210;SDS011;2119;48.828;12.396;2022-12-17T11:46:41;51.87;;;24.83;;
4210;SDS011;2119;48.828;12.396;2022-12-17T11:52:06;54.60;;;23.80;;
4210;SDS011;2119;48.828;12.396;2022-12-17T12:03:04;48.97;;;24.90;;
4210;SDS011;2119;48.828;12.396;2022-12-17T12:08:27;52.50;;;23.73;;
4210;SDS011;2119;48.828;12.396;2022-12-17T12:13:49;50.37;;;26.63;;
4210;SDS011;2119;48.828;12.396;2022-12-17T12:19:18;71.27;;;33.33;;
4210;SDS011;2119;48.828;12.396;2022-12-17T12:30:02;50.30;;;24.37;;
4210;SDS011;2119;48.828;12.396;2022-12-17T12:35:23;44.57;;;23.90;;
4210;SDS011;2119;48.828;12.396;2022-12-17T12:40:45;45.40;;;23.00;;
4210;SDS011;2119;48.828;12.396;2022-12-17T12:46:11;43.50;;;23.97;;
4210;SDS011;2119;48.828;12.396;2022-12-17T12:51:35;44.63;;;21.70;;
4210;SDS011;2119;48.828;12.396;2022-12-17T12:56:54;48.97;;;24.20;;
4210;SDS011;2119;48.828;12.396;2022-12-17T13:07:41;44.40;;;22.43;;
4210;SDS011;2119;48.828;12.396;2022-12-17T13:12:47;53.83;;;25.67;;
4210;SDS011;2119;48.828;12.396;2022-12-17T13:18:13;52.20;;;26.53;;
4210;SDS011;2119;48.828;12.396;2022-12-17T13:23:27;60.63;;;28.27;;
4210;SDS011;2119;48.828;12.396;2022-12-17T13:28:29;53.40;;;28.30;;
4210;SDS011;2119;48.828;12.396;2022-12-17T13:33:50;52.00;;;28.10;;
4210;SDS011;2119;48.828;12.396;2022-12-17T13:49:23;49.23;;;23.43;;
4210;SDS011;2119;48.828;12.396;2022-12-17T13:54:24;48.67;;;23.83;;
4210;SDS011;2119;48.828;12.396;2022-12-17T13:59:24;49.15;;;24.48;;
4210;SDS011;2119;48.828;12.396;2022-12-17T14:04:25;45.60;;;24.45;;
4210;SDS011;2119;48.828;12.396;2022-12-17T14:09:30;63.50;;;33.57;;
4210;SDS011;2119;48.828;12.396;2022-12-17T14:14:36;53.10;;;27.37;;
4210;SDS011;2119;48.828;12.396;2022-12-17T14:19:42;61.50;;;28.90;;
4210;SDS011;2119;48.828;12.396;2022-12-17T14:24:42;65.77;;;30.87;;
4210;SDS011;2119;48.828;12.396;2022-12-17T14:29:44;56.08;;;29.02;;
4210;SDS011;2119;48.828;12.396;2022-12-17T14:34:48;63.10;;;27.10;;
4210;SDS011;2119;48.828;12.396;2022-12-17T14:39:49;55.47;;;28.67;;
4210;SDS011;2119;48.828;12.396;2022-12-17T14:45:37;77.07;;;37.07;;
4210;SDS011;2119;48.828;12.396;2022-12-17T15:00:40;86.77;;;36.20;;
4210;SDS011;2119;48.828;12.396;2022-12-17T15:05:41;60.30;;;30.20;;
4210;SDS011;2119;48.828;12.396;2022-12-17T15:10:41;58.42;;;29.33;;
4210;SDS011;2119;48.828;12.396;2022-12-17T15:15:44;58.08;;;31.30;;
4210;SDS011;2119;48.828;12.396;2022-12-17T15:20:44;57.27;;;29.43;;
4210;SDS011;2119;48.828;12.396;2022-12-17T15:25:45;61.22;;;28.55;;
4210;SDS011;2119;48.828;12.396;2022-12-17T15:30:46;53.07;;;28.67;;
4210;SDS011;2119;48.828;12.396;2022-12-17T15:35:47;64.07;;;31.87;;
4210;SDS011;2119;48.828;12.396;2022-12-17T15:40:49;71.50;;;32.80;;
4210;SDS011;2119;48.828;12.396;2022-12-17T15:45:50;67.40;;;34.47;;
4210;SDS011;2119;48.828;12.396;2022-12-17T15:50:50;72.17;;;35.83;;
4210;SDS011;2119;48.828;12.396;2022-12-17T15:55:57;65.03;;;32.37;;
4210;SDS011;2119;48.828;12.396;2022-12-17T16:00:59;62.47;;;29.67;;
4210;SDS011;2119;48.828;12.396;2022-12-17T16:05:59;69.00;;;32.27;;
4210;SDS011;2119;48.828;12.396;2022-12-17T16:11:00;63.53;;;32.23;;
4210;SDS011;2119;48.828;12.396;2022-12-17T16:16:05;57.23;;;27.90;;
4210;SDS011;2119;48.828;12.396;2022-12-17T16:21:06;71.50;;;34.53;;
4210;SDS011;2119;48.828;12.396;2022-12-17T16:26:09;63.20;;;31.43;;
4210;SDS011;2119;48.828;12.396;2022-12-17T16:31:11;62.27;;;32.37;;
4210;SDS011;2119;48.828;12.396;2022-12-17T16:41:17;60.10;;;29.80;;
4210;SDS011;2119;48.828;12.396;2022-12-17T16:51:27;71.67;;;28.87;;
4210;SDS011;2119;48.828;12.396;2022-12-17T16:56:29;54.30;;;27.17;;
4210;SDS011;2119;48.828;12.396;2022-12-17T17:01:29;59.80;;;26.70;;
4210;SDS011;2119;48.828;12.396;2022-12-17T17:06:31;54.20;;;26.10;;
4210;SDS011;2119;48.828;12.396;2022-12-17T17:11:32;56.97;;;25.40;;
4210;SDS011;2119;48.828;12.396;2022-12-17T17:16:34;68.10;;;33.53;;
4210;SDS011;2119;48.828;12.396;2022-12-17T17:21:40;80.17;;;34.60;;
4210;SDS011;2119;48.828;12.396;2022-12-17T17:31:51;64.43;;;28.63;;
4210;SDS011;2119;48.828;12.396;2022-12-17T17:36:52;59.50;;;28.13;;
4210;SDS011;2119;48.828;12.396;2022-12-17T17:41:57;56.53;;;27.47;;
4210;SDS011;2119;48.828;12.396;2022-12-17T17:46:59;74.93;;;34.23;;
4210;SDS011;2119;48.828;12.396;2022-12-17T17:57:03;59.07;;;25.63;;
4210;SDS011;2119;48.828;12.396;2022-12-17T18:02:05;50.83;;;24.30;;
4210;SDS011;2119;48.828;12.396;2022-12-17T18:07:12;47.30;;;21.03;;
4210;SDS011;2119;48.828;12.396;2022-12-17T18:12:16;60.20;;;26.77;;
4210;SDS011;2119;48.828;12.396;2022-12-17T18:22:55;75.77;;;32.50;;
4210;SDS011;2119;48.828;12.396;2022-12-17T18:27:56;67.43;;;29.85;;
4210;SDS011;2119;48.828;12.396;2022-12-17T18:32:56;59.58;;;27.90;;
4210;SDS011;2119;48.828;12.396;2022-12-17T18:37:56;71.32;;;28.98;;
4210;SDS011;2119;48.828;12.396;2022-12-17T18:42:56;81.20;;;30.88;;
4210;SDS011;2119;48.828;12.396;2022-12-17T18:48:15;70.40;;;32.63;;
4210;SDS011;2119;48.828;12.396;2022-12-17T18:53:16;83.28;;;34.13;;
4210;SDS011;2119;48.828;12.396;2022-12-17T18:58:16;68.90;;;31.93;;
4210;SDS011;2119;48.828;12.396;2022-12-17T19:03:17;70.73;;;30.10;;
4210;SDS011;2119;48.828;12.396;2022-12-17T19:08:29;71.73;;;27.23;;
4210;SDS011;2119;48.828;12.396;2022-12-17T19:13:33;66.30;;;29.47;;
4210;SDS011;2119;48.828;12.396;2022-12-17T19:18:34;92.40;;;33.40;;
4210;SDS011;2119;48.828;12.396;2022-12-17T19:23:35;97.87;;;36.40;;
4210;SDS011;2119;48.828;12.396;2022-12-17T19:28:38;95.63;;;38.70;;
4210;SDS011;2119;48.828;12.396;2022-12-17T19:33:39;87.50;;;33.03;;
4210;SDS011;2119;48.828;12.396;2022-12-17T19:38:39;98.87;;;33.70;;
4210;SDS011;2119;48.828;12.396;2022-12-17T19:43:42;97.35;;;36.88;;
4210;SDS011;2119;48.828;12.396;2022-12-17T19:48:47;95.47;;;36.67;;
4210;SDS011;2119;48.828;12.396;2022-12-17T19:53:48;81.53;;;33.30;;
4210;SDS011;2119;48.828;12.396;2022-12-17T19:58:49;87.30;;;34.33;;
4210;SDS011;2119;48.828;12.396;2022-12-17T20:03:51;106.70;;;39.20;;
4210;SDS011;2119;48.828;12.396;2022-12-17T20:08:52;102.97;;;39.83;;
4210;SDS011;2119;48.828;12.396;2022-12-17T20:14:03;89.10;;;34.90;;
4210;SDS011;2119;48.828;12.396;2022-12-17T20:19:04;113.40;;;39.80;;
4210;SDS011;2119;48.828;12.396;2022-12-17T20:24:05;96.07;;;36.47;;
4210;SDS011;2119;48.828;12.396;2022-12-17T20:29:05;90.07;;;35.17;;
4210;SDS011;2119;48.828;12.396;2022-12-17T20:34:06;91.70;;;32.50;;
4210;SDS011;2119;48.828;12.396;2022-12-17T20:39:07;89.60;;;33.13;;
4210;SDS011;2119;48.828;12.396;2022-12-17T20:44:11;88.87;;;35.60;;
4210;SDS011;2119;48.828;12.396;2022-12-17T20:49:12;103.93;;;38.13;;
4210;SDS011;2119;48.828;12.396;2022-12-17T20:54:13;99.57;;;35.87;;
4210;SDS011;2119;48.828;12.396;2022-12-17T20:59:15;94.10;;;34.13;;
4210;SDS011;2119;48.828;12.396;2022-12-17T21:04:15;88.43;;;35.10;;
4210;SDS011;2119;48.828;12.396;2022-12-17T21:09:16;92.80;;;39.33;;
4210;SDS011;2119;48.828;12.396;2022-12-17T21:14:20;83.10;;;38.50;;
4210;SDS011;2119;48.828;12.396;2022-12-17T21:19:20;90.47;;;36.07;;
4210;SDS011;2119;48.828;12.396;2022-12-17T21:24:22;83.15;;;36.53;;
4210;SDS011;2119;48.828;12.396;2022-12-17T21:29:22;96.90;;;36.70;;
4210;SDS011;2119;48.828;12.396;2022-12-17T21:34:23;88.03;;;37.33;;
4210;SDS011;2119;48.828;12.396;2022-12-17T21:39:29;89.60;;;37.30;;
4210;SDS011;2119;48.828;12.396;2022-12-17T21:44:29;81.37;;;35.97;;
4210;SDS011;2119;48.828;12.396;2022-12-17T21:49:29;88.45;;;34.53;;
4210;SDS011;2119;48.828;12.396;2022-12-17T21:54:30;64.82;;;30.35;;
4210;SDS011;2119;48.828;12.396;2022-12-17T21:59:30;64.00;;;26.77;;
4210;SDS011;2119;48.828;12.396;2022-12-17T22:04:30;71.80;;;25.27;;
4210;SDS011;2119;48.828;12.396;2022-12-17T22:09:30;68.07;;;23.98;;
4210;SDS011;2119;48.828;12.396;2022-12-17T22:14:32;69.55;;;25.45;;
4210;SDS011;2119;48.828;12.396;2022-12-17T22:19:32;65.07;;;24.80;;
4210;SDS011;2119;48.828;12.396;2022-12-17T22:24:32;60.83;;;23.48;;
4210;SDS011;2119;48.828;12.396;2022-12-17T22:29:34;80.38;;;26.80;;
4210;SDS011;2119;48.828;12.396;2022-12-17T22:34:52;73.67;;;27.97;;
4210;SDS011;2119;48.828;12.396;2022-12-17T22:39:52;72.97;;;27.95;;
4210;SDS011;2119;48.828;12.396;2022-12-17T22:44:53;67.30;;;26.25;;
4210;SDS011;2119;48.828;12.396;2022-12-17T22:49:53;65.55;;;25.92;;
4210;SDS011;2119;48.828;12.396;2022-12-17T22:54:53;81.05;;;27.73;;
4210;SDS011;2119;48.828;12.396;2022-12-17T22:59:53;70.43;;;25.77;;
4210;SDS011;2119;48.828;12.396;2022-12-17T23:04:54;77.72;;;26.10;;
4210;SDS011;2119;48.828;12.396;2022-12-17T23:09:54;67.43;;;25.52;;
4210;SDS011;2119;48.828;12.396;2022-12-17T23:14:54;69.78;;;25.38;;
4210;SDS011;2119;48.828;12.396;2022-12-17T23:19:54;63.00;;;21.90;;
4210;SDS011;2119;48.828;12.396;2022-12-17T23:24:54;59.58;;;23.50;;
4210;SDS011;2119;48.828;12.396;2022-12-17T23:29:55;53.05;;;23.48;;
4210;SDS011;2119;48.828;12.396;2022-12-17T23:34:55;64.00;;;23.42;;
4210;SDS011;2119;48.828;12.396;2022-12-17T23:39:55;63.45;;;22.70;;
4210;SDS011;2119;48.828;12.396;2022-12-17T23:44:56;57.57;;;19.77;;
4210;SDS011;2119;48.828;12.396;2022-12-17T23:49:56;61.75;;;23.05;;
4210;SDS011;2119;48.828;12.396;2022-12-17T23:54:57;65.10;;;22.63;;
4210;SDS011;2119;48.828;12.396;2022-12-17T23:59:58;56.88;;;23.58;;
